Time;durP1;ratioP1;P1;durP2;ratioP2;P2;SDS_P1;SDS_P2;PMS_P1;PMS_P2;Temp;Humidity;BMP_temperature;BMP_pressure;BME280_temperature;BME280_humidity;BME280_pressure;Samples;Min_cycle;Max_cycle;Signal;HPM_P1;HPM_P2
2023/04/07 00:00:50;;;;;;;10.48;5.53;;;0.60;99.90;;;;;;5078740;28;20032;-82
2023/04/07 00:03:16;;;;;;;10.07;5.68;;;0.50;99.90;;;;;;5079033;28;20146;-82
2023/04/07 00:05:42;;;;;;;10.68;6.10;;;0.50;99.90;;;;;;5078698;28;20028;-82
2023/04/07 00:08:07;;;;;;;9.73;5.68;;;0.50;99.90;;;;;;5078832;28;20029;-82
2023/04/07 00:10:33;;;;;;;8.10;4.97;;;0.40;99.90;;;;;;5078735;28;20024;-82
2023/04/07 00:12:59;;;;;;;7.63;4.68;;;0.50;99.90;;;;;;5078425;28;20086;-82
2023/04/07 00:15:25;;;;;;;8.98;4.90;;;0.50;99.90;;;;;;5061752;28;20504;-82
2023/04/07 00:17:51;;;;;;;9.15;5.43;;;0.50;99.90;;;;;;5078545;28;20074;-82
2023/04/07 00:20:17;;;;;;;10.70;6.00;;;0.40;99.90;;;;;;5078461;28;20393;-82
2023/04/07 00:22:42;;;;;;;10.13;5.70;;;0.30;99.90;;;;;;5096599;28;20028;-82
2023/04/07 00:25:08;;;;;;;10.20;5.20;;;0.30;99.90;;;;;;5096970;28;20032;-82
2023/04/07 00:27:34;;;;;;;9.30;4.95;;;0.40;99.90;;;;;;5079532;28;20025;-82
2023/04/07 00:30:00;;;;;;;10.30;5.03;;;0.30;99.90;;;;;;5079537;28;20028;-82
2023/04/07 00:32:25;;;;;;;9.27;5.10;;;0.40;99.90;;;;;;5079005;28;20393;-82
2023/04/07 00:34:51;;;;;;;8.32;5.20;;;0.40;99.90;;;;;;5062584;28;20043;-82
2023/04/07 00:37:18;;;;;;;7.38;4.28;;;0.40;99.90;;;;;;5097475;28;20028;-82
2023/04/07 00:39:44;;;;;;;8.05;5.07;;;0.40;99.90;;;;;;5062575;28;20038;-82
2023/04/07 00:42:10;;;;;;;8.52;5.07;;;0.50;99.90;;;;;;5062276;28;20028;-82
2023/04/07 00:44:36;;;;;;;8.85;4.85;;;0.50;99.90;;;;;;5097446;28;20474;-82
2023/04/07 00:47:01;;;;;;;10.48;4.80;;;0.50;99.90;;;;;;5062320;28;20032;-82
2023/04/07 00:49:28;;;;;;;8.63;4.93;;;0.50;99.90;;;;;;5079264;28;20044;-82
2023/04/07 00:51:55;;;;;;;8.02;5.22;;;0.40;99.90;;;;;;5078893;28;20028;-82
2023/04/07 00:54:24;;;;;;;7.75;4.38;;;0.40;99.90;;;;;;5097150;28;20046;-82
2023/04/07 00:56:52;;;;;;;8.05;4.50;;;0.30;99.90;;;;;;5097027;28;20031;-82
2023/04/07 00:59:18;;;;;;;8.10;4.63;;;0.40;99.90;;;;;;5078813;28;20077;-82
2023/04/07 01:01:57;;;;;;;9.23;5.18;;;0.40;99.90;;;;;;5078681;28;20035;-82
2023/04/07 01:04:35;;;;;;;8.48;4.82;;;0.40;99.90;;;;;;5078851;28;20023;-82
2023/04/07 01:07:43;;;;;;;8.77;5.25;;;0.40;99.90;;;;;;5079571;28;20466;-82
2023/04/07 01:10:14;;;;;;;9.10;5.43;;;0.40;99.90;;;;;;5097072;28;20482;-82
2023/04/07 01:13:01;;;;;;;8.07;5.05;;;0.50;99.90;;;;;;5078944;28;20028;-83
2023/04/07 01:15:30;;;;;;;8.07;5.05;;;0.40;99.90;;;;;;5078510;28;20035;-82
2023/04/07 01:18:04;;;;;;;10.75;5.82;;;0.30;99.90;;;;;;5061946;28;20024;-82
2023/04/07 01:20:32;;;;;;;8.57;5.25;;;0.30;99.90;;;;;;5078222;28;20028;-82
2023/04/07 01:23:03;;;;;;;9.40;5.55;;;0.20;99.90;;;;;;5112864;28;20400;-82
2023/04/07 01:25:32;;;;;;;12.43;5.97;;;0.20;99.90;;;;;;5116470;28;20096;-82
2023/04/07 01:28:01;;;;;;;10.48;5.70;;;0.20;99.90;;;;;;5117109;28;20027;-82
2023/04/07 01:30:33;;;;;;;7.35;4.97;;;0.20;99.90;;;;;;5116194;28;20034;-82
2023/04/07 01:33:00;;;;;;;7.97;5.38;;;0.30;99.90;;;;;;5116809;28;20036;-82
2023/04/07 01:35:31;;;;;;;11.70;5.60;;;0.30;99.90;;;;;;5080779;28;20027;-82
2023/04/07 01:37:59;;;;;;;10.30;5.07;;;0.30;99.90;;;;;;5098099;28;20100;-82
2023/04/07 01:40:25;;;;;;;9.15;5.35;;;0.30;99.90;;;;;;5117138;28;20051;-82
2023/04/07 01:42:53;;;;;;;11.68;5.90;;;0.30;99.90;;;;;;5081351;28;20046;-81
2023/04/07 01:45:20;;;;;;;12.20;5.75;;;0.30;99.90;;;;;;5116873;28;20020;-82
2023/04/07 01:47:46;;;;;;;9.95;6.00;;;0.30;99.90;;;;;;5098470;28;20024;-83
2023/04/07 01:50:13;;;;;;;12.80;7.15;;;0.40;99.90;;;;;;5081052;28;20401;-83
2023/04/07 01:52:39;;;;;;;11.90;6.80;;;0.30;99.90;;;;;;5081106;28;20039;-83
2023/04/07 01:55:06;;;;;;;10.05;6.40;;;0.30;99.90;;;;;;5081321;28;20493;-83
2023/04/07 01:57:32;;;;;;;11.20;6.03;;;0.30;99.90;;;;;;5116427;28;20031;-83
2023/04/07 01:59:58;;;;;;;10.50;6.30;;;0.20;99.90;;;;;;5098728;28;20051;-83
2023/04/07 02:02:24;;;;;;;9.65;6.15;;;0.20;99.90;;;;;;5080781;28;20067;-83
2023/04/07 02:05:04;;;;;;;8.60;5.10;;;0.10;99.90;;;;;;5081382;28;20039;-83
2023/04/07 02:07:43;;;;;;;11.45;6.38;;;0.00;99.90;;;;;;5097670;28;20019;-83
2023/04/07 02:10:12;;;;;;;13.73;6.95;;;0.00;99.90;;;;;;5097811;28;20080;-83
2023/04/07 02:12:40;;;;;;;25.90;11.63;;;0.00;99.90;;;;;;5097103;28;20503;-83
2023/04/07 02:15:08;;;;;;;37.30;15.75;;;0.00;99.90;;;;;;5115198;28;20032;-83
2023/04/07 02:17:36;;;;;;;28.85;12.77;;;0.00;99.90;;;;;;5096243;28;20118;-83
2023/04/07 02:20:04;;;;;;;17.45;8.30;;;0.10;99.90;;;;;;5096507;28;20031;-83
2023/04/07 02:22:30;;;;;;;12.82;6.55;;;0.00;99.90;;;;;;5097013;28;20022;-83
2023/04/07 02:24:56;;;;;;;11.23;6.10;;;0.00;99.90;;;;;;5115249;28;20020;-83
2023/04/07 02:27:22;;;;;;;8.38;5.00;;;0.00;99.90;;;;;;5096331;28;20500;-83
2023/04/07 02:29:47;;;;;;;10.70;5.50;;;0.10;99.90;;;;;;5096581;28;20031;-83
2023/04/07 02:32:13;;;;;;;9.57;5.53;;;0.10;99.90;;;;;;5062892;28;20028;-83
2023/04/07 02:34:39;;;;;;;8.82;5.13;;;0.00;99.90;;;;;;5097009;28;20035;-83
2023/04/07 02:37:05;;;;;;;8.15;4.90;;;0.00;99.90;;;;;;5079989;28;20032;-83
2023/04/07 02:39:30;;;;;;;8.10;4.97;;;-0.10;99.90;;;;;;5079919;28;20057;-83
2023/04/07 02:41:56;;;;;;;17.30;8.98;;;-0.10;99.90;;;;;;5097042;28;20020;-83
2023/04/07 02:44:21;;;;;;;21.85;11.20;;;-0.10;99.90;;;;;;5097452;28;20028;-84
2023/04/07 02:46:47;;;;;;;17.63;9.38;;;-0.10;99.90;;;;;;5080565;28;20114;-83
2023/04/07 02:49:13;;;;;;;14.35;6.90;;;-0.10;99.90;;;;;;5101459;28;20038;-83
2023/04/07 02:51:38;;;;;;;12.23;7.28;;;-0.20;99.90;;;;;;5101736;28;20388;-83
2023/04/07 02:54:04;;;;;;;12.50;7.03;;;-0.30;99.90;;;;;;5120012;28;20077;-83
2023/04/07 02:56:30;;;;;;;9.40;6.47;;;-0.30;99.90;;;;;;5084918;28;20505;-84
2023/04/07 02:58:56;;;;;;;11.90;6.70;;;-0.30;99.90;;;;;;5101956;28;20027;-83
2023/04/07 03:01:21;;;;;;;13.35;6.85;;;-0.20;99.90;;;;;;5084537;28;20040;-83
2023/04/07 03:03:47;;;;;;;10.50;5.85;;;-0.20;99.90;;;;;;5101925;28;20030;-83
2023/04/07 03:06:13;;;;;;;10.93;6.60;;;-0.30;99.90;;;;;;5120324;28;20031;-83
2023/04/07 03:08:39;;;;;;;10.43;5.65;;;-0.30;99.90;;;;;;5119509;28;20033;-83
2023/04/07 03:11:05;;;;;;;9.85;5.63;;;-0.40;99.90;;;;;;5101285;28;20031;-83
2023/04/07 03:13:31;;;;;;;8.30;5.00;;;-0.40;99.90;;;;;;5101536;28;20036;-83
2023/04/07 03:15:57;;;;;;;9.57;5.90;;;-0.40;99.90;;;;;;5101546;28;20035;-83
2023/04/07 03:18:22;;;;;;;11.15;6.30;;;-0.40;99.90;;;;;;5101509;28;20024;-83
2023/04/07 03:20:48;;;;;;;11.63;5.30;;;-0.40;99.90;;;;;;5119443;28;20028;-83
2023/04/07 03:23:14;;;;;;;10.82;5.72;;;-0.50;99.90;;;;;;5084554;28;20553;-83
2023/04/07 03:25:40;;;;;;;11.10;5.85;;;-0.60;99.90;;;;;;5102325;28;20077;-83
2023/04/07 03:28:06;;;;;;;9.70;5.60;;;-0.60;99.90;;;;;;5101833;28;20020;-83
2023/04/07 03:30:32;;;;;;;12.13;7.20;;;-0.60;99.90;;;;;;5083922;28;20149;-83
2023/04/07 03:32:57;;;;;;;10.13;6.20;;;-0.60;99.90;;;;;;5117482;28;20401;-83
2023/04/07 03:35:23;;;;;;;9.50;5.40;;;-0.60;99.90;;;;;;5098978;28;20024;-83
2023/04/07 03:37:49;;;;;;;9.23;5.38;;;-0.60;99.90;;;;;;5082159;28;20118;-84
2023/04/07 03:40:15;;;;;;;9.95;5.75;;;-0.60;99.90;;;;;;5099231;28;20027;-83
2023/04/07 03:42:40;;;;;;;12.52;6.50;;;-0.50;99.90;;;;;;5065328;28;20040;-83
2023/04/07 03:45:07;;;;;;;10.15;5.47;;;-0.50;99.90;;;;;;5098913;28;20133;-83
2023/04/07 03:47:32;;;;;;;10.02;6.22;;;-0.50;99.90;;;;;;5098832;28;20485;-83
2023/04/07 03:49:58;;;;;;;10.82;5.88;;;-0.60;99.90;;;;;;5098878;28;20039;-83
2023/04/07 03:52:23;;;;;;;10.65;6.10;;;-0.70;99.90;;;;;;5098896;28;20107;-83
2023/04/07 03:54:49;;;;;;;16.00;7.22;;;-0.80;99.90;;;;;;5117261;28;20035;-83
2023/04/07 03:57:15;;;;;;;26.30;10.73;;;-0.70;99.90;;;;;;5117433;28;20084;-83
2023/04/07 03:59:41;;;;;;;35.20;14.65;;;-0.80;99.90;;;;;;5078048;28;20032;-83
2023/04/07 04:02:06;;;;;;;28.88;13.48;;;-0.70;99.90;;;;;;5096561;28;20032;-83
2023/04/07 04:04:32;;;;;;;20.85;9.48;;;-0.70;99.90;;;;;;5061881;28;20025;-83
2023/04/07 04:06:58;;;;;;;17.35;7.00;;;-0.70;99.90;;;;;;5061737;28;20051;-83
2023/04/07 04:09:23;;;;;;;11.05;5.95;;;-0.60;99.90;;;;;;5078957;28;20020;-83
2023/04/07 04:11:49;;;;;;;11.38;6.13;;;-0.60;99.90;;;;;;5078820;28;20031;-83
2023/04/07 04:14:15;;;;;;;8.90;5.65;;;-0.60;99.90;;;;;;5097577;28;20016;-83
2023/04/07 04:16:41;;;;;;;9.35;5.35;;;-0.60;99.90;;;;;;5098360;28;20069;-83
2023/04/07 04:19:06;;;;;;;10.63;5.65;;;-0.60;99.90;;;;;;5064133;28;20481;-83
2023/04/07 04:21:32;;;;;;;10.18;5.93;;;-0.60;99.90;;;;;;5063778;28;20105;-83
2023/04/07 04:23:58;;;;;;;12.35;6.72;;;-0.60;99.90;;;;;;5098864;28;20032;-83
2023/04/07 04:26:24;;;;;;;11.52;7.20;;;-0.70;99.90;;;;;;5064021;28;20024;-83
2023/04/07 04:28:51;;;;;;;14.40;8.23;;;-0.70;99.90;;;;;;5080636;28;20016;-83
2023/04/07 04:31:17;;;;;;;12.55;8.20;;;-0.80;99.90;;;;;;5080940;28;20034;-83
2023/04/07 04:33:46;;;;;;;12.63;7.38;;;-0.80;99.90;;;;;;5081203;28;20110;-83
2023/04/07 04:36:12;;;;;;;13.48;8.18;;;-0.80;99.90;;;;;;5099059;28;20063;-83
2023/04/07 04:38:37;;;;;;;13.00;7.95;;;-0.80;99.90;;;;;;5099330;28;20028;-83
2023/04/07 04:41:03;;;;;;;13.13;7.65;;;-0.80;99.90;;;;;;5064872;28;20035;-83
2023/04/07 04:43:29;;;;;;;12.75;7.90;;;-0.80;99.90;;;;;;5104728;28;20020;-83
2023/04/07 04:45:55;;;;;;;12.02;7.22;;;-0.70;99.90;;;;;;5116846;28;20046;-83
2023/04/07 04:48:21;;;;;;;11.15;6.75;;;-0.70;99.90;;;;;;5136646;28;20035;-83
2023/04/07 04:50:47;;;;;;;11.25;6.35;;;-0.70;99.90;;;;;;5113767;28;20032;-78
2023/04/07 04:53:12;;;;;;;15.77;7.90;;;-0.60;99.90;;;;;;5130619;28;20019;-78
2023/04/07 04:55:39;;;;;;;13.48;7.90;;;-0.60;99.90;;;;;;5130706;28;20067;-78
2023/04/07 04:58:05;;;;;;;15.45;8.75;;;-0.50;99.90;;;;;;5108145;28;20077;-78
2023/04/07 05:00:31;;;;;;;17.35;10.57;;;-0.50;99.90;;;;;;5100991;28;20032;-79
2023/04/07 05:02:56;;;;;;;21.83;11.07;;;-0.40;99.90;;;;;;5099688;28;20085;-78
2023/04/07 05:05:22;;;;;;;15.02;8.43;;;-0.40;99.90;;;;;;5082721;28;20077;-78
2023/04/07 05:07:48;;;;;;;14.50;8.18;;;-0.40;99.90;;;;;;5100225;28;20028;-78
2023/04/07 05:10:14;;;;;;;13.50;7.63;;;-0.40;99.90;;;;;;5081571;28;20393;-78
2023/04/07 05:12:40;;;;;;;12.35;7.65;;;-0.30;99.90;;;;;;5117097;28;20097;-78
2023/04/07 05:15:06;;;;;;;12.68;7.55;;;-0.30;99.90;;;;;;5117539;28;20027;-78
2023/04/07 05:17:32;;;;;;;15.88;8.48;;;-0.30;99.90;;;;;;5099297;28;20035;-78
2023/04/07 05:20:01;;;;;;;17.35;8.73;;;-0.20;99.90;;;;;;5066454;28;20039;-78
2023/04/07 05:22:27;;;;;;;13.02;8.25;;;-0.30;99.90;;;;;;5099792;28;20016;-78
2023/04/07 05:24:53;;;;;;;16.23;8.75;;;-0.30;99.90;;;;;;5118070;28;20027;-78
2023/04/07 05:27:18;;;;;;;14.02;8.50;;;-0.30;99.90;;;;;;5065303;28;20132;-78
2023/04/07 05:29:44;;;;;;;17.55;8.38;;;-0.40;99.90;;;;;;5081554;28;20032;-78
2023/04/07 05:32:10;;;;;;;15.75;8.75;;;-0.40;99.90;;;;;;5097833;28;20031;-78
2023/04/07 05:34:36;;;;;;;11.73;7.78;;;-0.40;99.90;;;;;;5115972;28;20087;-78
2023/04/07 05:37:01;;;;;;;16.65;8.80;;;-0.40;99.90;;;;;;5115869;28;20039;-78
2023/04/07 05:39:27;;;;;;;14.38;8.27;;;-0.40;99.90;;;;;;5100424;28;20388;-78
2023/04/07 05:41:53;;;;;;;15.00;8.57;;;-0.30;99.90;;;;;;5109494;28;20024;-78
2023/04/07 05:44:18;;;;;;;16.75;8.65;;;-0.30;99.90;;;;;;5111234;28;20039;-78
2023/04/07 05:46:44;;;;;;;19.55;9.85;;;-0.20;99.90;;;;;;5111945;28;20046;-78
2023/04/07 05:49:10;;;;;;;16.13;9.27;;;-0.20;99.90;;;;;;5112020;28;20118;-78
2023/04/07 05:51:36;;;;;;;14.45;8.82;;;-0.20;99.90;;;;;;5111112;28;20107;-78
2023/04/07 05:54:05;;;;;;;13.93;8.05;;;-0.10;99.90;;;;;;5108247;28;20097;-78
2023/04/07 05:56:30;;;;;;;15.75;8.00;;;-0.10;99.90;;;;;;5093901;28;20031;-78
2023/04/07 05:58:57;;;;;;;13.88;8.20;;;0.00;99.90;;;;;;5111071;28;20038;-78
2023/04/07 06:01:23;;;;;;;13.93;7.63;;;0.00;99.90;;;;;;5111653;28;20157;-78
2023/04/07 06:03:49;;;;;;;13.23;7.18;;;0.10;99.90;;;;;;5130506;28;20027;-79
2023/04/07 06:06:15;;;;;;;14.05;8.10;;;0.10;99.90;;;;;;5128331;28;20035;-79
2023/04/07 06:08:40;;;;;;;13.77;7.53;;;0.20;99.90;;;;;;5102858;28;20024;-78
2023/04/07 06:11:06;;;;;;;14.18;7.63;;;0.20;99.90;;;;;;5117791;28;20435;-78
2023/04/07 06:13:32;;;;;;;15.60;8.40;;;0.30;99.90;;;;;;5117201;28;20028;-78
2023/04/07 06:15:57;;;;;;;13.77;8.20;;;0.30;99.90;;;;;;5099395;28;20031;-78
2023/04/07 06:18:24;;;;;;;13.52;7.68;;;0.40;99.90;;;;;;5099732;28;20031;-79
2023/04/07 06:20:50;;;;;;;15.60;8.07;;;0.40;99.90;;;;;;5117849;28;20024;-78
2023/04/07 06:23:15;;;;;;;14.05;8.23;;;0.40;99.90;;;;;;5116910;28;20117;-78
2023/04/07 06:25:41;;;;;;;16.10;8.30;;;0.50;99.90;;;;;;5116890;28;20028;-78
2023/04/07 06:28:07;;;;;;;14.23;8.57;;;0.50;99.90;;;;;;5098416;28;20024;-78
2023/04/07 06:30:33;;;;;;;15.05;9.20;;;0.50;99.90;;;;;;5099533;28;20053;-78
2023/04/07 06:32:59;;;;;;;12.80;7.55;;;0.60;99.90;;;;;;5097883;28;20048;-78
2023/04/07 06:35:26;;;;;;;13.93;7.57;;;0.60;99.90;;;;;;5098557;28;20028;-78
2023/04/07 06:37:52;;;;;;;13.50;7.78;;;0.70;99.90;;;;;;5096434;28;20027;-78
2023/04/07 06:40:17;;;;;;;14.23;8.60;;;0.70;99.90;;;;;;5095546;28;20036;-78
2023/04/07 06:42:44;;;;;;;17.23;8.90;;;0.70;99.90;;;;;;5079129;28;20055;-78
2023/04/07 06:45:10;;;;;;;16.23;9.70;;;0.70;99.90;;;;;;5115221;28;20102;-78
2023/04/07 06:47:37;;;;;;;15.50;9.10;;;0.80;99.90;;;;;;5095642;28;20446;-78
2023/04/07 06:50:03;;;;;;;18.30;10.05;;;0.80;99.90;;;;;;5097321;28;20020;-78
2023/04/07 06:52:29;;;;;;;18.70;9.45;;;0.80;99.90;;;;;;5080851;28;20035;-78
2023/04/07 06:54:55;;;;;;;16.58;9.80;;;0.80;99.90;;;;;;5097528;28;20038;-78
2023/04/07 06:57:20;;;;;;;21.85;10.80;;;0.90;99.90;;;;;;5097372;28;20034;-78
2023/04/07 06:59:46;;;;;;;17.27;9.68;;;0.90;99.90;;;;;;5097389;28;20104;-78
2023/04/07 07:02:11;;;;;;;18.15;9.70;;;1.00;99.90;;;;;;5115614;28;20028;-78
2023/04/07 07:04:37;;;;;;;15.57;9.07;;;1.00;99.90;;;;;;5114948;28;20107;-78
2023/04/07 07:07:03;;;;;;;21.05;10.13;;;1.00;99.90;;;;;;5080063;28;20118;-78
2023/04/07 07:09:29;;;;;;;19.75;10.73;;;1.10;99.90;;;;;;5096578;28;20477;-78
2023/04/07 07:11:54;;;;;;;17.40;10.20;;;1.10;99.90;;;;;;5097400;28;20028;-78
2023/04/07 07:14:20;;;;;;;22.60;10.82;;;1.20;99.90;;;;;;5097073;28;20085;-78
2023/04/07 07:16:46;;;;;;;18.35;10.57;;;1.20;99.90;;;;;;5096223;28;20020;-78
2023/04/07 07:19:13;;;;;;;19.40;11.32;;;1.30;99.90;;;;;;5115007;28;20049;-78
2023/04/07 07:21:39;;;;;;;21.77;11.57;;;1.40;99.90;;;;;;5063142;28;20032;-78
2023/04/07 07:24:05;;;;;;;16.25;10.20;;;1.40;99.90;;;;;;5095578;28;20394;-78
2023/04/07 07:26:30;;;;;;;18.73;9.93;;;1.50;99.90;;;;;;5078899;28;20035;-79
2023/04/07 07:28:56;;;;;;;20.45;11.25;;;1.60;99.90;;;;;;5114150;28;20069;-79
2023/04/07 07:31:22;;;;;;;21.17;12.35;;;1.70;99.90;;;;;;5097060;28;20032;-78
2023/04/07 07:33:50;;;;;;;20.63;10.95;;;1.80;99.90;;;;;;5097658;28;20508;-78
2023/04/07 07:36:16;;;;;;;22.75;11.40;;;1.90;99.90;;;;;;5099659;28;20055;-78
2023/04/07 07:38:41;;;;;;;21.25;11.02;;;1.90;99.90;;;;;;5100857;28;20057;-78
2023/04/07 07:41:07;;;;;;;17.20;10.52;;;2.00;99.90;;;;;;5118164;28;20389;-78
2023/04/07 07:43:34;;;;;;;18.63;10.73;;;2.10;99.90;;;;;;5101748;28;20031;-78
2023/04/07 07:45:59;;;;;;;18.35;9.40;;;2.10;99.90;;;;;;5122221;28;20020;-78
2023/04/07 07:48:25;;;;;;;17.55;9.70;;;2.10;99.90;;;;;;5123776;28;20107;-78
2023/04/07 07:50:51;;;;;;;19.25;10.98;;;2.20;99.90;;;;;;5085527;28;20032;-78
2023/04/07 07:53:17;;;;;;;17.48;10.07;;;2.30;99.90;;;;;;5120960;28;20023;-78
2023/04/07 07:55:45;;;;;;;14.60;9.00;;;2.30;99.90;;;;;;5102733;28;20061;-78
2023/04/07 07:58:11;;;;;;;16.15;9.63;;;2.40;99.90;;;;;;5103386;28;20478;-78
2023/04/07 08:00:37;;;;;;;17.42;10.98;;;2.40;99.90;;;;;;5119838;28;20032;-78
2023/04/07 08:03:02;;;;;;;17.48;10.35;;;2.40;99.90;;;;;;5099232;28;20031;-78
2023/04/07 08:05:28;;;;;;;19.27;11.65;;;2.50;99.90;;;;;;5099648;28;20036;-78
2023/04/07 08:07:54;;;;;;;20.48;11.65;;;2.50;99.90;;;;;;5117316;28;20020;-78
2023/04/07 08:10:20;;;;;;;22.00;11.30;;;2.60;99.90;;;;;;5083071;28;20034;-78
2023/04/07 08:12:46;;;;;;;23.63;11.85;;;2.60;99.90;;;;;;5117884;28;20525;-78
2023/04/07 08:15:12;;;;;;;20.48;10.90;;;2.70;99.90;;;;;;5117339;28;20051;-78
2023/04/07 08:17:38;;;;;;;20.33;12.30;;;2.70;99.90;;;;;;5099257;28;20031;-78
2023/04/07 08:20:05;;;;;;;16.65;10.00;;;2.80;99.90;;;;;;5099621;28;20538;-78
2023/04/07 08:22:31;;;;;;;17.02;9.70;;;2.90;99.90;;;;;;5082664;28;20507;-78
2023/04/07 08:24:57;;;;;;;17.35;9.77;;;3.00;99.90;;;;;;5117448;28;20025;-78
2023/04/07 08:27:22;;;;;;;17.98;10.15;;;3.10;99.90;;;;;;5099658;28;20192;-78
2023/04/07 08:29:58;;;;;;;20.15;10.23;;;3.10;99.90;;;;;;5117394;28;20035;-78
2023/04/07 08:32:24;;;;;;;19.65;10.80;;;3.20;99.90;;;;;;5117495;28;20473;-78
2023/04/07 08:34:50;;;;;;;18.70;9.77;;;3.30;99.90;;;;;;5082061;28;20036;-79
2023/04/07 08:37:15;;;;;;;18.20;10.55;;;3.50;99.90;;;;;;5117326;28;20423;-78
2023/04/07 08:39:41;;;;;;;18.70;10.63;;;3.60;99.90;;;;;;5099190;28;20031;-78
2023/04/07 08:42:09;;;;;;;16.88;10.25;;;3.70;99.90;;;;;;5098958;28;20524;-78
2023/04/07 08:44:37;;;;;;;15.63;10.25;;;3.80;99.90;;;;;;5099167;28;20119;-78
2023/04/07 08:47:06;;;;;;;18.23;10.30;;;3.90;99.90;;;;;;5117048;28;20042;-78
2023/04/07 08:49:34;;;;;;;19.80;10.40;;;4.00;99.90;;;;;;5098558;28;20027;-78
2023/04/07 08:52:05;;;;;;;16.90;9.07;;;4.00;99.90;;;;;;5116879;28;20047;-78
2023/04/07 08:54:32;;;;;;;15.05;9.85;;;4.10;99.90;;;;;;5098793;28;20073;-78
2023/04/07 08:57:00;;;;;;;13.73;9.07;;;4.10;99.90;;;;;;5117283;28;20507;-78
2023/04/07 08:59:28;;;;;;;16.45;9.55;;;4.10;99.90;;;;;;5117433;28;20103;-78
2023/04/07 09:01:55;;;;;;;18.23;9.88;;;4.10;99.90;;;;;;5118006;28;20032;-78
2023/04/07 09:04:23;;;;;;;16.48;9.23;;;4.20;99.90;;;;;;5116368;28;20051;-78
2023/04/07 09:06:52;;;;;;;16.73;10.15;;;4.20;99.90;;;;;;5098531;28;20058;-78
2023/04/07 09:09:17;;;;;;;15.77;9.77;;;4.30;99.90;;;;;;5098964;28;20042;-78
2023/04/07 09:11:43;;;;;;;14.50;9.52;;;4.40;99.90;;;;;;5099866;28;20476;-78
2023/04/07 09:14:09;;;;;;;17.45;8.93;;;4.50;99.90;;;;;;5082627;28;20028;-78
2023/04/07 09:16:35;;;;;;;15.27;9.30;;;4.50;99.90;;;;;;5082073;28;20053;-78
2023/04/07 09:19:01;;;;;;;14.23;8.75;;;4.60;99.90;;;;;;5082462;28;20036;-79
2023/04/07 09:21:47;;;;;;;17.65;9.30;;;4.70;99.90;;;;;;5098425;28;20031;-79
2023/04/07 09:24:27;;;;;;;14.63;8.55;;;4.80;99.90;;;;;;5117459;28;20023;-79
2023/04/07 09:27:16;;;;;;;14.93;8.75;;;4.90;99.90;;;;;;5117065;28;20092;-79
2023/04/07 09:29:44;;;;;;;12.43;7.30;;;5.00;99.90;;;;;;5116935;28;20474;-79
2023/04/07 09:32:11;;;;;;;12.88;8.32;;;5.10;99.90;;;;;;5098623;28;20080;-79
2023/04/07 09:34:40;;;;;;;11.63;7.72;;;5.30;99.90;;;;;;5098437;28;20031;-79
2023/04/07 09:37:08;;;;;;;12.43;7.93;;;5.40;99.90;;;;;;5098944;28;20034;-79
2023/04/07 09:39:50;;;;;;;15.63;8.02;;;5.50;99.90;;;;;;5098737;28;20024;-79
2023/04/07 09:42:16;;;;;;;13.18;7.82;;;5.70;99.90;;;;;;5097990;28;20020;-79
2023/04/07 09:44:43;;;;;;;12.10;7.75;;;5.80;99.90;;;;;;5098675;28;20076;-79
2023/04/07 09:47:10;;;;;;;16.02;9.07;;;6.00;99.90;;;;;;5116391;28;20111;-79
2023/04/07 09:49:50;;;;;;;15.65;8.25;;;6.10;99.90;;;;;;5098895;28;20034;-79
2023/04/07 09:52:16;;;;;;;14.50;7.93;;;6.20;99.90;;;;;;5116714;28;20051;-79
2023/04/07 09:54:43;;;;;;;13.75;8.40;;;6.30;99.90;;;;;;5098906;28;20044;-79
2023/04/07 09:57:10;;;;;;;18.95;10.93;;;6.50;99.90;;;;;;5098836;28;20533;-79
2023/04/07 09:59:38;;;;;;;24.10;14.43;;;6.60;99.90;;;;;;5098925;28;20047;-79
2023/04/07 10:02:05;;;;;;;17.92;10.43;;;6.70;99.90;;;;;;5116390;28;20016;-79
2023/04/07 10:04:31;;;;;;;19.30;10.57;;;6.80;99.90;;;;;;5115190;28;20365;-77
2023/04/07 10:06:59;;;;;;;14.68;9.02;;;6.90;99.90;;;;;;5115030;28;20031;-77
2023/04/07 10:09:29;;;;;;;14.95;10.02;;;7.00;99.90;;;;;;5114651;28;20035;-77
2023/04/07 10:11:57;;;;;;;14.52;8.55;;;7.10;99.90;;;;;;5096454;28;20023;-77
2023/04/07 10:14:26;;;;;;;15.05;8.70;;;7.10;99.90;;;;;;5096111;28;20020;-77
2023/04/07 10:16:53;;;;;;;14.90;8.57;;;7.30;99.90;;;;;;5115327;28;20027;-79
2023/04/07 10:19:20;;;;;;;12.60;8.23;;;7.40;99.90;;;;;;5081018;28;20386;-79
2023/04/07 10:21:50;;;;;;;11.30;7.20;;;7.40;99.20;;;;;;5097251;28;20096;-79
2023/04/07 10:24:28;;;;;;;12.48;8.23;;;7.50;99.20;;;;;;5115955;28;20385;-79
2023/04/07 10:26:58;;;;;;;12.00;8.00;;;7.70;98.70;;;;;;5115220;28;20043;-79
2023/04/07 10:29:24;;;;;;;14.07;7.70;;;7.70;97.60;;;;;;5115584;28;20019;-79
2023/04/07 10:31:51;;;;;;;12.80;7.63;;;7.80;96.90;;;;;;5099685;28;20061;-79
2023/04/07 10:34:37;;;;;;;12.40;7.38;;;7.90;97.10;;;;;;5097998;28;20039;-79
2023/04/07 10:37:13;;;;;;;13.88;9.30;;;8.00;97.30;;;;;;5083891;28;20028;-79
2023/04/07 10:39:39;;;;;;;11.68;7.88;;;8.20;97.10;;;;;;5115583;28;20102;-79
2023/04/07 10:42:05;;;;;;;17.88;8.35;;;8.30;96.70;;;;;;5115221;28;20102;-79
2023/04/07 10:44:40;;;;;;;12.70;7.63;;;8.40;95.50;;;;;;5097747;28;20556;-79
2023/04/07 10:47:07;;;;;;;13.40;6.47;;;8.60;95.10;;;;;;5115327;28;20027;-79
2023/04/07 10:49:33;;;;;;;11.35;6.88;;;8.70;91.90;;;;;;5115436;28;20024;-78
2023/04/07 10:52:11;;;;;;;11.95;6.85;;;8.70;90.80;;;;;;5096830;28;20055;-78
2023/04/07 10:54:37;;;;;;;11.32;6.05;;;8.80;89.50;;;;;;5115751;28;20027;-78
2023/04/07 10:57:10;;;;;;;11.52;6.70;;;8.90;85.10;;;;;;5115331;28;20483;-78
2023/04/07 10:59:39;;;;;;;12.85;6.75;;;9.00;84.50;;;;;;5097263;28;20405;-78
2023/04/07 11:02:15;;;;;;;11.13;7.22;;;9.10;81.00;;;;;;5115581;28;20024;-78
2023/04/07 11:04:43;;;;;;;11.07;7.20;;;9.10;82.90;;;;;;5115137;28;20047;-79
2023/04/07 11:07:10;;;;;;;14.40;7.65;;;9.20;82.10;;;;;;5096303;28;20039;-78
2023/04/07 11:09:36;;;;;;;12.57;7.72;;;9.20;82.40;;;;;;5117768;28;20076;-78
2023/04/07 11:12:02;;;;;;;10.82;7.15;;;9.40;80.50;;;;;;5118437;28;20080;-79
2023/04/07 11:14:30;;;;;;;11.40;5.35;;;9.40;81.60;;;;;;5119101;28;20062;-78
2023/04/07 11:16:57;;;;;;;13.13;6.82;;;9.40;80.10;;;;;;5100555;28;20378;-78
2023/04/07 11:19:22;;;;;;;8.82;5.40;;;9.50;82.40;;;;;;5100462;28;20034;-78
2023/04/07 11:21:48;;;;;;;9.05;5.78;;;9.50;78.90;;;;;;5100399;28;20485;-79
2023/04/07 11:24:33;;;;;;;8.85;5.38;;;9.50;81.20;;;;;;5100667;28;20026;-78
2023/04/07 11:27:00;;;;;;;9.70;5.43;;;9.60;80.90;;;;;;5118708;28;20069;-78
2023/04/07 11:29:32;;;;;;;9.60;6.10;;;9.80;79.40;;;;;;5101070;28;20027;-78
2023/04/07 11:32:01;;;;;;;9.15;5.88;;;9.90;79.90;;;;;;5101162;28;20031;-78
2023/04/07 11:34:35;;;;;;;9.82;5.75;;;10.00;78.70;;;;;;5119260;28;20086;-79
2023/04/07 11:37:21;;;;;;;9.75;6.10;;;10.20;79.20;;;;;;5100321;28;20115;-79
2023/04/07 11:39:54;;;;;;;8.50;5.45;;;10.30;79.30;;;;;;5119190;28;20034;-79
2023/04/07 11:42:31;;;;;;;8.95;5.13;;;10.40;76.70;;;;;;5100287;28;20107;-79
2023/04/07 11:44:57;;;;;;;8.00;4.60;;;10.40;82.00;;;;;;5101434;28;20019;-79
2023/04/07 11:47:36;;;;;;;7.47;5.22;;;10.40;77.30;;;;;;5101815;28;20034;-79
2023/04/07 11:50:02;;;;;;;7.97;5.22;;;10.40;79.00;;;;;;5120658;28;20049;-79
2023/04/07 11:52:27;;;;;;;7.50;5.00;;;10.50;79.90;;;;;;5101525;28;20470;-79
2023/04/07 11:54:53;;;;;;;8.15;4.82;;;10.50;77.00;;;;;;5119723;28;20089;-79
2023/04/07 11:57:27;;;;;;;7.75;4.15;;;10.60;80.00;;;;;;5119314;28;20031;-79
2023/04/07 12:00:07;;;;;;;7.88;4.97;;;10.60;80.60;;;;;;5101123;28;20087;-79
2023/04/07 12:02:34;;;;;;;6.63;4.78;;;10.60;74.80;;;;;;5085023;28;20035;-79
2023/04/07 12:04:59;;;;;;;8.18;4.65;;;10.60;75.20;;;;;;5100613;28;20077;-79
2023/04/07 12:07:25;;;;;;;7.05;4.85;;;10.60;75.60;;;;;;5100316;28;20024;-79
2023/04/07 12:09:53;;;;;;;10.00;5.20;;;10.60;77.70;;;;;;5117921;28;20069;-79
2023/04/07 12:12:31;;;;;;;9.43;5.22;;;10.60;78.20;;;;;;5118349;28;20385;-79
2023/04/07 12:14:57;;;;;;;8.73;5.30;;;10.60;77.10;;;;;;5099492;28;20020;-79
2023/04/07 12:17:25;;;;;;;8.35;4.78;;;10.60;75.70;;;;;;5082948;28;20080;-79
2023/04/07 12:19:51;;;;;;;8.40;5.30;;;10.70;76.20;;;;;;5117969;28;20024;-79
2023/04/07 12:22:18;;;;;;;7.32;5.18;;;10.80;76.10;;;;;;5099943;28;20100;-79
2023/04/07 12:24:43;;;;;;;7.00;4.57;;;10.80;76.10;;;;;;5118330;28;20031;-79
2023/04/07 12:27:09;;;;;;;9.93;4.18;;;10.90;75.60;;;;;;5118169;28;20023;-79
2023/04/07 12:29:36;;;;;;;7.07;4.68;;;10.90;74.30;;;;;;5099991;28;20019;-79
2023/04/07 12:32:03;;;;;;;6.57;4.25;;;10.90;74.90;;;;;;5118223;28;20076;-79
2023/04/07 12:34:28;;;;;;;6.65;4.22;;;11.00;79.90;;;;;;5100714;28;20039;-79
2023/04/07 12:36:54;;;;;;;6.28;3.88;;;11.10;75.90;;;;;;5118410;28;20048;-79
2023/04/07 12:39:20;;;;;;;4.50;3.17;;;11.20;77.60;;;;;;5099860;28;20031;-79
2023/04/07 12:41:47;;;;;;;5.25;3.35;;;11.30;74.50;;;;;;5118318;28;20034;-79
2023/04/07 12:44:14;;;;;;;6.35;3.63;;;11.40;73.60;;;;;;5099764;28;20140;-79